Sunday, December 21, 2014, 6:07 PM EST

KSEG, Selinsgrove Penn Valley Airport

Location: Selinsgrove, PA, United States Lat: 40.817
Local Time: 6:07 PM EST (23:07 GMT) Lon: -76.867
Time Zone: US/Eastern Elev: 449 ft

Show me the last for .
Show Decoded

2014-12-21 17:53 METAR KSEG 212253Z AUTO 00000KT 10SM CLR M03/M07 A3033 RMK AO2 SLP276 T10331067
                 =
2014-12-21 16:53 METAR KSEG 212153Z AUTO 00000KT 10SM CLR M02/M06 A3031 RMK AO2 SLP269 T10221056
                 =
2014-12-21 15:53 METAR KSEG 212053Z AUTO 32003KT 10SM CLR 00/M06 A3030 RMK AO2 SLP266 T00001061
                 55006 =
2014-12-21 14:53 METAR KSEG 211953Z AUTO 04003KT 10SM OVC030 01/M06 A3030 RMK AO2 SLP265
                 T00111061 =
2014-12-21 14:17 METAR KSEG 211917Z AUTO 00000KT 10SM OVC030 01/M07 A3030 RMK AO2 T00111067 =
2014-12-21 13:53 METAR KSEG 211853Z AUTO 34005KT 10SM OVC029 01/M06 A3031 RMK AO2 SLP268
                 T00111061 =
2014-12-21 12:53 METAR KSEG 211753Z AUTO 36004KT 10SM OVC025 01/M06 A3032 RMK AO2 SLP272
                 T00061056 10006 21006 58010 =
2014-12-21 11:53 METAR KSEG 211653Z AUTO 36005KT 10SM OVC024 01/M06 A3034 RMK AO2 SLP278
                 T00061056 =
2014-12-21 10:53 METAR KSEG 211553Z AUTO 34005KT 10SM OVC023 00/M06 A3035 RMK AO2 SLP283
                 T00001056 =
2014-12-21 09:53 METAR KSEG 211453Z AUTO 31005KT 10SM OVC024 00/M06 A3035 RMK AO2 SLP283
                 T00001056 51015 =
2014-12-21 08:53 METAR KSEG 211353Z AUTO 31005KT 10SM OVC028 00/M06 A3033 RMK AO2 SLP277
                 T00001056 =
2014-12-21 07:53 METAR KSEG 211253Z AUTO 28003KT 10SM OVC028 M01/M05 A3032 RMK AO2 SLP274
                 T10061050 =
2014-12-21 06:53 METAR KSEG 211153Z AUTO 00000KT 10SM OVC027 M01/M06 A3031 RMK AO2 SLP268
                 T10061056 11006 21006 53004 =
2014-12-21 06:32 METAR KSEG 211132Z AUTO 29003KT 10SM OVC029 M01/M06 A3031 RMK AO2 T10061056 =
2014-12-21 05:53 METAR KSEG 211053Z AUTO 00000KT 10SM OVC031 M01/M06 A3030 RMK AO2 SLP265
                 T10061056 =
2014-12-21 04:53 METAR KSEG 210953Z AUTO 00000KT 10SM OVC029 M01/M06 A3029 RMK AO2 SLP262
                 T10061056 =
2014-12-21 03:53 METAR KSEG 210853Z AUTO 31003KT 10SM OVC028 M01/M06 A3029 RMK AO2 SLP263
                 T10061056 50004 =
2014-12-21 02:53 METAR KSEG 210753Z AUTO 30004KT 10SM OVC028 M01/M06 A3030 RMK AO2 SLP264
                 T10061056 =
2014-12-21 01:53 METAR KSEG 210653Z AUTO 29004KT 10SM OVC028 M01/M06 A3029 RMK AO2 SLP261
                 T10061056 =
2014-12-21 00:53 METAR KSEG 210553Z AUTO 30004KT 10SM OVC029 M01/M06 A3028 RMK AO2 SLP259
                 T10061056 10006 21006 56004 =
2014-12-20 23:53 METAR KSEG 210453Z AUTO 30003KT 10SM OVC029 00/M05 A3028 RMK AO2 SLP259
                 T00001050 400111011 =
2014-12-20 23:20 METAR KSEG 210420Z AUTO 00000KT 10SM OVC029 M01/M04 A3029 RMK AO2 T10061044 =
2014-12-20 22:53 METAR KSEG 210353Z AUTO 00000KT 10SM OVC030 00/M04 A3029 RMK AO2 SLP263
                 T00001044 =
2014-12-20 21:53 METAR KSEG 210253Z AUTO 00000KT 10SM OVC030 00/M06 A3029 RMK AO2 SLP263
                 T00001056 53001 =
2014-12-20 20:53 METAR KSEG 210153Z AUTO 00000KT 10SM OVC030 00/M05 A3027 RMK AO2 SLP257
                 T00001050 =
2014-12-20 19:53 METAR KSEG 210053Z AUTO 00000KT 10SM OVC031 00/M05 A3027 RMK AO2 SLP257
                 T00001050 =
2014-12-20 18:53 METAR KSEG 202353Z AUTO 00000KT 10SM OVC031 01/M06 A3029 RMK AO2 SLP263
                 T00061061 10011 20000 53012 =

Support USWX by starting your Amazon purchase here.